航空気象通報

ウインドサーファーのための航空気象通報による風予報です。

9/30-10/1の航空気象通報(国内、海外)

2012年09月30日 23時35分10秒 | TAF

羽田空港
TAF RJTT 300840Z 3009/0112 15035G47KT 9999 -SHRA FEW015 BKN025
     TEMPO 3009/3012 2000 +SHRA FEW005 BKN008
     BECMG 3010/3012 20045G55KT
     TEMPO 3012/3015 20050G65KT 4000 SHRA
     BECMG 3015/3017 21030G42KT
     BECMG 3021/3024 20020KT
日本時間30日18-19時:150度から35ノット、突風45ノット
19-21時:風が変化
21-24時:200度から45ノット、突風55ノット
但し、21-24時の間:ときどき200度から50ノット、突風65ノット
1日00-02時:風が変化
02-06時:210度から30ノット、突風42ノット
06-09時:風が変化
09-21時:200度から20ノットの風

静岡空港
TAF AMD RJNS 301213Z 3012/0112 24025G35KT 8000 -SHRA FEW008 BKN015
     TEMPO 3012/3015 24035G50KT
     BECMG 3018/3021 25012KT
日本時間30日21時-1日03時:240度から25ノット、突風35ノット
但し、21-24時の間:ときどき240度から35ノット、突風50ノット
03-06時:風が変化
06-21時:250度から12ノットの風

福岡空港
TAF RJFF 300835Z 3009/0112 34010KT 9999 FEW025 SCT045
     BECMG 3016/3018 14003KT
     BECMG 3021/3024 34010KT
日本時間30日18時-1日01時:340度から10ノットの風
01-03時:風が変化
03-06時:140度から3ノットの風
06-09時:風が変化
09-21時:340度から10ノットの風

那覇空港
TAF ROAH 300837Z 3009/0112 34011KT 9999 FEW030
日本時間30日18時-1日21時:340度から11ノットの風

マウイのカフルイ空港
PHOG 301128Z 3012/0112 VRB05KT P6SM SCT060 BKN250
     FM301900 06015G25KT P6SM FEW030 SCT060
     FM010600 07006KT P6SM SCT060 AMD LTD TO WX VIS AND WIND TIL 301600
ハワイ時間30日02-09時:風向不定5ノットの風

09-20時:060度から15ノット、突風25ノット
20時-1日02時:070度から6ノットの風

サイパン空港
PGSN 301120Z 3012/0112 VRB08KT P6SM VCSH SCT018CB SCT050 BKN120
マリアナ時間30日22時-1日22時:風向不定8ノットの風

コメント

9/29-9/30の航空気象通報(国内、海外)

2012年09月30日 00時09分26秒 | TAF

羽田空港
TAF RJTT 290842Z 2909/3012 18012KT 9999 FEW020
     BECMG 3006/3009 12025G35KT
     BECMG 3009/3012 15038G50KT
日本時間29日18時-30日15時:180度から12ノットの風
15-18時:風が変化
18時:120度から25ノット、突風35ノット
18-21時:風が変化
21時:150度から38ノット、突風50ノット

静岡空港
TAF RJNS 290842Z 2909/3012 26010KT 9999 FEW020 SCT040
     BECMG 2921/2924 10008KT
     BECMG 3003/3006 10018KT 4000 SHRA BR
     BECMG 3006/3009 13030G40KT
     TEMPO 3009/3012 18045G55KT 1500 +SHRA BR FEW004 BKN008
日本時間29日18時-30日06時:260度から10ノットの風
06-09時:風が変化
09-12時:100度から8ノットの風
12-15時:風が変化
15時:100度から18ノットの風
15-18時:風が変化
18-21時:130度から30ノット、突風40ノット
、30日12-15時の後、

福岡空港
TAF RJFF 290847Z 2909/3012 01006KT 9999 -SHRA FEW010 SCT015 BKN025
     BECMG 3000/3003 34016KT
     TEMPO 3003/3009 32017G27KT
日本時間29日18時-30日09時:010度から6ノットの風
09-12時:風が変化
12-21時:340度から16ノットの風
但し、12-18時の間:ときどき320度から17ノット、突風27ノット

那覇空港
TAF AMD ROAH 291141Z 2911/3012 32030G40KT 7000 FEW010 BKN020
     TEMPO 2911/2915 4000 -SHRA BR
     BECMG 2918/2921 33020G30KT
日本時間29日20時-30日03時:320度から30ノット、突風40ノット
03-06時:風が変化
06-21時:330度から20ノット、突風30ノット

マウイのカフルイ空港
PHOG 291138Z 2912/3012 05008G16KT P6SM SCT060
     FM291900 05012G18KT P6SM FEW060
     FM292200 05018G28KT P6SM SCT060
     FM300500 05012G18KT P6SM SCT060 AMD LTD TO WX VIS AND WIND TIL 291600
ハワイ時間29日02-09時:050度から8ノット、突風16ノット
09-12時:050度から12ノット、突風18ノット
12-19時:050度から18ノット、突風28ノット
19時-30日02時:050度から12ノット、突風18ノット

サイパン空港
PGSN 291120Z 2912/3012 08009KT P6SM VCSH FEW018 BKN100
     FM292100 04012KT P6SM VCSH SCT016 BKN100
マリアナ時間29日22時-30日07時:080度から9ノットの風
07-22時:040度から12ノットの風

コメント

9/27-9/28の航空気象通報(国内、海外)

2012年09月27日 23時42分39秒 | TAF

羽田空港
TAF RJTT 270837Z 2709/2812 36023KT 9999 FEW010 BKN020
     TEMPO 2712/2721 36025G35KT
日本時間27日18時-28日21時:360度から23ノットの風
但し、27日21時-28日06時の間:ときどき360度から25ノット、突風35ノット

静岡空港
TAF RJNS 270837Z 2709/2812 07008KT 9999 FEW030
     BECMG 2710/2712 34006KT
     BECMG 2800/2803 19006KT
     BECMG 2809/2812 30006KT
日本時間27日18-19時:070度から8ノットの風
19-21時:風が変化
21時-28日09時:340度から6ノットの風
09-12時:風が変化
12-18時:190度から6ノットの風
18-21時:風が変化
21時:300度から6ノットの風

福岡空港
TAF RJFF 270838Z 2709/2812 34006KT 9999 FEW030
     BECMG 2712/2714 14004KT
     BECMG 2800/2803 31010KT
日本時間27日18-21時:340度から6ノットの風
21-23時:風が変化
23時-28日09時:140度から4ノットの風
09-12時:風が変化
12-21時:310度から10ノットの風

那覇空港
TAF ROAH 270837Z 2709/2812 07011KT 9999 FEW020 SCT030
     BECMG 2718/2721 10011KT
     TEMPO 2809/2812 4000 SHRA
日本時間27日18時-28日03時:070度から11ノットの風
03-06時:風が変化
06-21時:100度から11ノットの風

但し、28日18-21時の間:ときどき

マウイのカフルイ空港
PHOG 271120Z 2712/2812 05008KT P6SM SCT050
     FM272000 05018G28KT P6SM SCT050
     FM280400 05012KT P6SM SCT050
     FM280700 05008KT P6SM SCT050 AMD LTD TO WX VIS AND WIND TIL 271600
ハワイ時間27日02-10時:050度から8ノットの風
10-18時:050度から18ノット、突風28ノット
18-21時:050度から12ノットの風
21時-28日02時:050度から8ノットの風

サイパン空港
PGSN 271134Z 2712/2812 05006KT P6SM VCSH FEW020 SCT120
     FM272000 05011KT P6SM VCSH SCT018 BKN120
マリアナ時間27日22時-28日06時:050度から6ノットの風

10-22時:050度から11ノットの風

コメント

9/26-9/27の航空気象通報(国内、海外)

2012年09月26日 23時29分04秒 | TAF

羽田空港
TAF RJTT 260836Z 2609/2712 05015KT 9999 FEW030
日本時間26日18時-27日21時:050度から15ノットの風

静岡空港
TAF RJNS 260840Z 2609/2712 05010KT 9999 FEW030
日本時間26日18時-27日21時:050度から10ノットの風

福岡空港
TAF RJFF 260839Z 2609/2712 03007KT 9999 FEW030
     BECMG 2613/2615 14004KT
     BECMG 2700/2703 01011KT
     BECMG 2709/2712 14005KT
日本時間26日18-22時:030度から7ノットの風
22-24時:風が変化
27日00-09時:140度から4ノットの風
09-12時:風が変化
12-18時:010度から11ノットの風
18-21時:風が変化
21時:140度から5ノットの風

那覇空港
TAF ROAH 260837Z 2609/2712 06014KT 9999 SCT030
     TEMPO 2609/2612 06016G26KT
日本時間26日18時-27日21時:060度から14ノットの風
但し、26日18-21時の間:ときどき060度から16ノット、突風26ノット

マウイのカフルイ空港
PHOG 261138Z 2612/2712 05011KT P6SM SCT050
     FM262000 05018G26KT P6SM FEW050
     FM270400 05012KT P6SM SCT050 AMD LTD TO WX VIS AND WIND TIL 261600
ハワイ時間26日02-10時:050度から11ノットの風
10-18時:050度から18ノット、突風26ノット
18時-27日02時:050度から12ノットの風

サイパン空港
PGSN 261127Z 2612/2712 09007KT P6SM VCSH FEW018 SCT050
     FM270000 07011KT P6SM VCSH SCT018 SCT050
マリアナ時間26日22時-27日10時:090度から7ノットの風
10-22時:070度から11ノットの風

コメント

9/25-9/26の航空気象通報(国内、海外)

2012年09月26日 00時24分06秒 | TAF

羽田空港
TAF RJTT 250837Z 2509/2612 04015KT 9999 FEW020 SCT030
日本時間25日18時-26日21時:040度から15ノットの風

静岡空港
TAF RJNS 250843Z 2509/2612 07006KT 9999 FEW030
     BECMG 2512/2514 36004KT
     BECMG 2521/2524 06010KT
日本時間25日18-21時:070度から6ノットの風
21-23時:風が変化
23時-26日06時:360度から4ノットの風
06-09時:風が変化
09-21時:060度から10ノットの風

福岡空港
TAF RJFF 250839Z 2509/2612 02009KT 9999 FEW030
     BECMG 2514/2516 14003KT
     BECMG 2600/2603 01010KT
日本時間25日18-23時:020度から9ノットの風
23時-26日01時:風が変化
01-09時:140度から3ノットの風
09-12時:風が変化
12-21時:010度から10ノットの風

那覇空港
TAF ROAH 250837Z 2509/2612 06014KT 9999 SCT025
日本時間25日18時-26日21時:060度から14ノットの風

マウイのカフルイ空港
PHOG 251138Z 2512/2612 05010KT P6SM SCT050
     FM251900 05018G28KT P6SM SCT050
     FM260400 05012KT P6SM SCT050
     FM260800 05008KT P6SM SCT050 AMD LTD TO WX VIS AND WIND TIL 251600
ハワイ時間25日02-09時:050度から10ノットの風
09-18時:050度から18ノット、突風28ノット
18-22時:050度から12ノットの風
22時-26日02時:050度から8ノットの風

サイパン空港
PGSN 251503Z 2515/2612 08008KT P6SM VCSH SCT018 SCT050 BKN150
     TEMPO 2515/2517 12009G18KT 3SM SHRA SCT016CB BKN025
マリアナ時間26日01-22時:080度から8ノットの風
但し、01-03時の間:ときどき120度から9ノット、突風18ノット

コメント